Windom, Indiana
Current Conditions -  °F | °C
As of 8:35 PM on Saturday 20 Dec 2014 (Local Time) from KDCY Reporting Station
Clear Clear  
Wind Chill: 26°   Ceiling: Unl
Heat Index: 26°   Visibility: 7mi
Dew Point: 23°   Wind: 0mph
Humidity: 87%   Direction: NA
Pressure: 30.3"   Gusts: NA
Location:  38.6262°N, 86.7615°W
Report Text: KDCY 210235Z AUTO 00000KT 7SM CLR M03/M05 A3030 RMK AO2 T10311050
Loading
Personal Weather Stations






























Interactive Weather Map New forecast layout! Learn more

10-Day Weather Forecast

Advertisements
Track Severe Weather on mobile